createdAt,value
2018-11-03T00:01:13.132Z,76.30
2018-11-03T00:03:44.911Z,76.50
2018-11-03T00:06:16.600Z,76.60
2018-11-03T00:08:47.999Z,75.80
2018-11-03T00:11:19.807Z,75.50
2018-11-03T00:13:51.440Z,75.50
2018-11-03T00:16:23.027Z,75.70
2018-11-03T00:18:54.871Z,75.80
2018-11-03T00:21:26.428Z,75.50
2018-11-03T00:23:57.942Z,75.20
2018-11-03T00:26:29.794Z,75.60
2018-11-03T00:29:01.564Z,75.10
2018-11-03T00:31:33.276Z,75.20
2018-11-03T00:34:05.019Z,75.20
2018-11-03T00:36:36.655Z,75.40
2018-11-03T00:39:11.421Z,75.20
2018-11-03T00:41:42.943Z,75.10
2018-11-03T00:44:14.931Z,75.30
2018-11-03T00:46:46.359Z,75.00
2018-11-03T00:49:18.116Z,74.80
2018-11-03T00:51:49.665Z,74.90
2018-11-03T00:54:22.055Z,75.30
2018-11-03T00:56:53.737Z,75.50
2018-11-03T00:59:25.330Z,75.30
2018-11-03T01:01:57.351Z,75.80
2018-11-03T01:04:29.247Z,75.30
2018-11-03T01:07:01.013Z,75.00
2018-11-03T01:09:32.589Z,74.90
2018-11-03T01:12:04.487Z,75.10
2018-11-03T01:14:36.294Z,74.70
2018-11-03T01:17:08.189Z,75.10
2018-11-03T01:19:39.893Z,75.20
2018-11-03T01:22:12.313Z,74.90
2018-11-03T01:24:43.777Z,74.80
2018-11-03T01:27:15.545Z,75.00
2018-11-03T01:29:54.412Z,74.90
2018-11-03T01:32:33.280Z,74.90
2018-11-03T01:35:05.579Z,74.90
2018-11-03T01:37:38.824Z,74.60
2018-11-03T01:40:10.681Z,74.80
2018-11-03T01:42:42.460Z,74.80
2018-11-03T01:45:14.155Z,74.80
2018-11-03T01:47:45.950Z,74.80
2018-11-03T01:50:17.712Z,74.50
2018-11-03T01:52:50.103Z,74.40
2018-11-03T01:55:21.758Z,74.40
2018-11-03T01:57:54.563Z,75.00
2018-11-03T02:00:27.022Z,74.70
2018-11-03T02:02:58.658Z,74.60
2018-11-03T02:05:30.151Z,74.50
2018-11-03T02:08:01.697Z,74.40
2018-11-03T02:10:33.360Z,74.30
2018-11-03T02:13:05.790Z,74.50
2018-11-03T02:15:37.434Z,74.70
2018-11-03T02:18:08.872Z,74.50
2018-11-03T02:20:40.608Z,74.50
2018-11-03T02:23:12.467Z,74.50
2018-11-03T02:25:44.009Z,74.40
2018-11-03T02:28:15.530Z,74.70
2018-11-03T02:30:47.358Z,74.10
2018-11-03T02:33:18.891Z,74.10
2018-11-03T02:35:51.213Z,74.20
2018-11-03T02:38:22.836Z,74.10
2018-11-03T02:40:54.320Z,74.10
2018-11-03T02:43:26.723Z,74.10
2018-11-03T02:45:58.217Z,74.30
2018-11-03T02:48:30.077Z,73.90
2018-11-03T02:51:02.364Z,74.30
2018-11-03T02:53:34.102Z,74.50
2018-11-03T02:56:06.161Z,74.60
2018-11-03T02:58:37.718Z,73.90
2018-11-03T03:01:10.108Z,74.00
2018-11-03T03:03:41.744Z,73.90
2018-11-03T03:06:13.208Z,73.70
2018-11-03T03:08:45.780Z,73.80
2018-11-03T03:11:17.446Z,74.00
2018-11-03T03:13:49.708Z,73.80
2018-11-03T03:16:21.360Z,74.10
2018-11-03T03:18:53.092Z,74.00
2018-11-03T03:21:24.728Z,74.20
2018-11-03T03:23:57.684Z,73.80
2018-11-03T03:26:30.346Z,73.70
2018-11-03T03:29:01.966Z,73.80
2018-11-03T03:31:33.644Z,74.00
2018-11-03T03:34:05.252Z,73.90
2018-11-03T03:36:36.926Z,73.90
2018-11-03T03:39:10.402Z,73.60
2018-11-03T03:41:42.220Z,73.60
2018-11-03T03:44:14.484Z,73.90
2018-11-03T03:46:46.053Z,73.50
2018-11-03T03:49:17.841Z,73.60
2018-11-03T03:51:49.354Z,73.50
2018-11-03T03:54:21.158Z,73.70
2018-11-03T03:56:52.639Z,74.60
2018-11-03T03:59:24.763Z,73.50
2018-11-03T04:01:56.668Z,73.50
2018-11-03T04:04:28.142Z,73.60
2018-11-03T04:07:00.711Z,73.70
2018-11-03T04:09:32.482Z,73.70
2018-11-03T04:12:04.177Z,73.60
2018-11-03T04:14:36.612Z,73.80
2018-11-03T04:17:08.311Z,73.70
2018-11-03T04:19:40.740Z,73.50
2018-11-03T04:22:12.055Z,73.80
2018-11-03T04:24:43.876Z,73.60
2018-11-03T04:27:15.670Z,73.80
2018-11-03T04:29:47.432Z,73.80
2018-11-03T04:32:18.913Z,73.50
2018-11-03T04:34:50.739Z,73.40
2018-11-03T04:37:22.451Z,73.40
2018-11-03T04:39:54.243Z,73.70
2018-11-03T04:42:25.858Z,73.50
2018-11-03T04:44:57.243Z,73.40
2018-11-03T04:47:28.977Z,73.40
2018-11-03T04:50:00.677Z,73.40
2018-11-03T04:52:32.955Z,73.40
2018-11-03T04:55:04.640Z,73.40
2018-11-03T04:57:36.203Z,73.40
2018-11-03T05:00:08.320Z,73.40
2018-11-03T05:02:39.823Z,73.60
2018-11-03T05:05:11.363Z,73.50
2018-11-03T05:07:42.891Z,73.40
2018-11-03T05:10:14.655Z,73.30
2018-11-03T05:12:47.217Z,73.30
2018-11-03T05:15:18.927Z,73.40
2018-11-03T05:17:51.359Z,73.20
2018-11-03T05:20:22.927Z,73.20
2018-11-03T05:22:54.415Z,73.40
2018-11-03T05:25:26.295Z,73.20
2018-11-03T05:27:57.988Z,73.10
2018-11-03T05:30:30.571Z,73.20
2018-11-03T05:33:02.095Z,73.20
2018-11-03T05:35:33.930Z,73.70
2018-11-03T05:38:05.652Z,73.30
2018-11-03T05:40:37.164Z,73.30
2018-11-03T05:43:08.932Z,73.10
2018-11-03T05:45:40.513Z,73.40
2018-11-03T05:48:12.948Z,73.50
2018-11-03T05:50:44.393Z,73.50
2018-11-03T05:53:16.214Z,73.50
2018-11-03T05:55:47.682Z,73.60
2018-11-03T05:58:19.329Z,73.50
2018-11-03T06:00:51.841Z,73.80
2018-11-03T06:03:23.374Z,73.80
2018-11-03T06:05:55.316Z,73.80
2018-11-03T06:08:26.882Z,73.80
2018-11-03T06:10:58.738Z,74.00
2018-11-03T06:13:30.384Z,74.20
2018-11-03T06:16:01.977Z,74.10
2018-11-03T06:18:33.519Z,74.10
2018-11-03T06:21:05.354Z,74.30
2018-11-03T06:23:36.994Z,74.30
2018-11-03T06:26:08.834Z,74.40
2018-11-03T06:28:40.444Z,74.40
2018-11-03T06:31:12.000Z,74.50
2018-11-03T06:33:43.440Z,74.50
2018-11-03T06:36:15.903Z,75.00
2018-11-03T06:38:47.594Z,74.60
2018-11-03T06:41:19.254Z,74.70
2018-11-03T06:43:51.049Z,74.80
2018-11-03T06:46:23.422Z,74.80
2018-11-03T06:48:59.572Z,74.90
2018-11-03T06:51:31.206Z,75.00
2018-11-03T06:54:03.604Z,75.10
2018-11-03T06:56:35.656Z,75.20
2018-11-03T06:59:07.220Z,75.10
2018-11-03T07:01:39.766Z,75.30
2018-11-03T07:04:11.587Z,75.40
2018-11-03T07:06:43.074Z,75.50
2018-11-03T07:09:14.964Z,75.50
2018-11-03T07:11:46.801Z,75.50
2018-11-03T07:14:26.796Z,75.70
2018-11-03T07:17:00.031Z,75.80
2018-11-03T07:19:31.458Z,75.90
2018-11-03T07:22:03.342Z,75.90
2018-11-03T07:24:34.924Z,75.90
2018-11-03T07:27:06.651Z,76.00
2018-11-03T07:29:38.295Z,76.20
2018-11-03T07:32:10.346Z,76.10
2018-11-03T07:34:43.004Z,76.30
2018-11-03T07:37:14.751Z,76.20
2018-11-03T07:39:46.393Z,76.30
2018-11-03T07:42:18.226Z,76.40
2018-11-03T07:44:49.720Z,76.50
2018-11-03T07:47:21.407Z,77.30
2018-11-03T07:49:52.994Z,76.80
2018-11-03T07:52:24.820Z,76.80
2018-11-03T07:54:56.653Z,76.90
2018-11-03T07:57:28.336Z,76.90
2018-11-03T07:59:59.786Z,77.10
2018-11-03T08:02:31.648Z,77.10
2018-11-03T08:05:03.151Z,77.30
2018-11-03T08:07:35.014Z,77.30
2018-11-03T08:10:07.142Z,77.40
2018-11-03T08:12:38.895Z,77.60
2018-11-03T08:15:11.614Z,77.70
2018-11-03T08:17:43.187Z,77.80
2018-11-03T08:20:14.946Z,77.80
2018-11-03T08:22:46.557Z,78.00
2018-11-03T08:25:18.821Z,78.10
2018-11-03T08:27:51.329Z,78.30
2018-11-03T08:30:23.902Z,78.30
2018-11-03T08:32:57.320Z,78.30
2018-11-03T08:35:29.216Z,78.60
2018-11-03T08:38:00.857Z,78.80
2018-11-03T08:40:32.656Z,78.40
2018-11-03T08:43:04.574Z,79.00
2018-11-03T08:45:36.211Z,78.90
2018-11-03T08:48:08.130Z,79.30
2018-11-03T08:50:39.931Z,79.40
2018-11-03T08:53:11.877Z,80.10
2018-11-03T08:55:43.442Z,79.40
2018-11-03T08:58:15.305Z,79.70
2018-11-03T09:00:47.046Z,79.70
2018-11-03T09:03:18.803Z,79.60
2018-11-03T09:05:50.530Z,79.70
2018-11-03T09:08:22.074Z,79.80
2018-11-03T09:10:53.927Z,80.00
2018-11-03T09:13:25.560Z,79.70
2018-11-03T09:15:57.367Z,79.90
2018-11-03T09:18:29.101Z,80.10
2018-11-03T09:21:01.060Z,80.10
2018-11-03T09:23:37.620Z,80.40
2018-11-03T09:26:10.191Z,80.30
2018-11-03T09:28:41.782Z,80.10
2018-11-03T09:31:13.821Z,80.40
2018-11-03T09:33:45.641Z,80.20
2018-11-03T09:36:17.257Z,80.20
2018-11-03T09:38:49.201Z,80.10
2018-11-03T09:41:20.731Z,80.70
2018-11-03T09:43:52.659Z,80.60
2018-11-03T09:46:24.309Z,80.70
2018-11-03T09:48:56.024Z,80.70
2018-11-03T09:51:27.576Z,81.10
2018-11-03T09:53:59.963Z,80.70
2018-11-03T09:56:31.631Z,81.30
2018-11-03T09:59:03.251Z,82.20
2018-11-03T10:01:35.335Z,82.30
2018-11-03T10:04:07.367Z,82.30
2018-11-03T10:06:39.358Z,82.40
2018-11-03T10:09:11.441Z,82.10
2018-11-03T10:11:43.219Z,81.80
2018-11-03T10:14:15.349Z,82.10
2018-11-03T10:16:47.291Z,82.10
2018-11-03T10:19:18.891Z,83.00
2018-11-03T10:21:51.384Z,83.40
2018-11-03T10:24:23.478Z,83.80
2018-11-03T10:26:55.210Z,84.40
2018-11-03T10:29:26.836Z,83.90
2018-11-03T10:31:58.398Z,84.70
2018-11-03T10:34:30.127Z,86.70
2018-11-03T10:37:02.524Z,86.80
2018-11-03T10:39:34.069Z,86.50
2018-11-03T10:42:05.951Z,87.40
2018-11-03T10:44:37.781Z,87.60
2018-11-03T10:47:09.523Z,88.70
2018-11-03T10:49:45.857Z,88.40
2018-11-03T10:52:17.515Z,88.40
2018-11-03T10:54:49.110Z,88.40
2018-11-03T10:57:20.845Z,88.70
2018-11-03T10:59:52.763Z,87.30
2018-11-03T11:02:29.534Z,86.20
2018-11-03T11:05:05.982Z,87.10
2018-11-03T11:07:42.762Z,86.90
2018-11-03T11:10:19.359Z,87.60
2018-11-03T11:12:51.311Z,87.10
2018-11-03T11:15:23.728Z,87.40
2018-11-03T11:17:55.348Z,86.90
2018-11-03T11:20:27.004Z,86.70
2018-11-03T11:22:58.554Z,86.50
2018-11-03T11:25:30.299Z,86.50
2018-11-03T11:28:02.921Z,85.90
2018-11-03T11:30:40.636Z,87.20
2018-11-03T11:33:13.882Z,85.80
2018-11-03T11:35:45.599Z,85.70
2018-11-03T11:38:17.456Z,85.70
2018-11-03T11:40:49.160Z,84.90
2018-11-03T11:43:20.969Z,84.30
2018-11-03T11:45:52.978Z,84.20
2018-11-03T11:48:24.764Z,84.40
2018-11-03T11:50:56.429Z,84.00
2018-11-03T11:53:28.116Z,84.10
2018-11-03T11:55:59.830Z,83.00
2018-11-03T11:58:31.473Z,83.20
2018-11-03T12:01:03.940Z,83.20
2018-11-03T12:03:35.739Z,82.70
2018-11-03T12:06:07.687Z,82.70
2018-11-03T12:08:39.339Z,82.50
2018-11-03T12:11:12.109Z,82.80
2018-11-03T12:13:44.709Z,82.60
2018-11-03T12:16:16.406Z,82.60
2018-11-03T12:18:48.680Z,82.40
2018-11-03T12:21:20.273Z,82.70
2018-11-03T12:23:53.242Z,82.60
2018-11-03T12:26:25.104Z,82.60
2018-11-03T12:28:56.965Z,82.60
2018-11-03T12:31:28.779Z,82.80
2018-11-03T12:36:59.097Z,82.70
2018-11-03T12:39:30.643Z,82.30
2018-11-03T12:42:02.233Z,82.60
2018-11-03T12:44:34.188Z,82.30
2018-11-03T12:47:05.982Z,82.40
2018-11-03T12:49:38.938Z,82.40
2018-11-03T12:52:10.651Z,82.20
2018-11-03T12:54:42.413Z,82.20
2018-11-03T12:57:13.932Z,82.20
2018-11-03T12:59:45.645Z,82.80
2018-11-03T13:02:17.347Z,82.10
2018-11-03T13:04:49.830Z,82.10
2018-11-03T13:07:21.378Z,82.00
2018-11-03T13:09:53.791Z,82.10
2018-11-03T13:12:25.314Z,82.00
2018-11-03T13:14:57.164Z,82.10
2018-11-03T13:17:28.782Z,81.90
2018-11-03T13:20:00.504Z,81.80
2018-11-03T13:22:32.177Z,81.90
2018-11-03T13:25:04.022Z,81.80
2018-11-03T13:27:35.724Z,81.80
2018-11-03T13:30:08.530Z,81.60
2018-11-03T13:32:40.365Z,81.60
2018-11-03T13:35:13.410Z,81.50
2018-11-03T13:37:45.167Z,81.50
2018-11-03T13:40:16.672Z,81.60
2018-11-03T13:42:48.508Z,81.50
2018-11-03T13:45:20.870Z,81.60
2018-11-03T13:47:52.880Z,81.70
2018-11-03T13:50:24.536Z,81.50
2018-11-03T13:52:56.224Z,81.60
2018-11-03T13:55:27.650Z,81.60
2018-11-03T13:57:59.319Z,81.40
2018-11-03T14:00:31.103Z,81.50
2018-11-03T14:03:02.634Z,81.50
2018-11-03T14:05:34.820Z,81.50
2018-11-03T14:08:07.111Z,81.40
2018-11-03T14:10:38.912Z,81.50
2018-11-03T14:13:10.554Z,81.50
2018-11-03T14:15:42.353Z,81.40
2018-11-03T14:18:13.915Z,81.40
2018-11-03T14:20:46.189Z,81.10
2018-11-03T14:23:18.249Z,81.20
2018-11-03T14:25:50.089Z,81.00
2018-11-03T14:28:21.767Z,81.20
2018-11-03T14:30:53.485Z,80.80
2018-11-03T14:33:25.224Z,81.50
2018-11-03T14:35:56.943Z,80.70
2018-11-03T14:38:28.750Z,80.80
2018-11-03T14:41:00.513Z,80.80
2018-11-03T14:43:32.471Z,80.70
2018-11-03T14:46:04.467Z,80.90
2018-11-03T14:48:36.393Z,80.90
2018-11-03T14:51:08.105Z,80.90
2018-11-03T14:53:39.753Z,80.90
2018-11-03T14:56:11.861Z,80.90
2018-11-03T14:58:43.644Z,80.90
2018-11-03T15:01:15.320Z,80.90
2018-11-03T15:03:47.717Z,80.90
2018-11-03T15:06:19.427Z,80.90
2018-11-03T15:08:52.171Z,80.90
2018-11-03T15:11:23.859Z,80.80
2018-11-03T15:13:57.601Z,80.80
2018-11-03T15:16:30.307Z,80.80
2018-11-03T15:19:01.995Z,80.80
2018-11-03T15:21:34.517Z,81.50
2018-11-03T15:24:07.019Z,80.80
2018-11-03T15:26:38.822Z,80.70
2018-11-03T15:29:10.565Z,80.70
2018-11-03T15:31:42.279Z,80.70
2018-11-03T15:34:14.128Z,80.80
2018-11-03T15:36:46.517Z,80.70
2018-11-03T15:39:18.125Z,80.80
2018-11-03T15:41:49.802Z,80.70
2018-11-03T15:44:21.703Z,81.00
2018-11-03T15:46:53.393Z,80.70
2018-11-03T15:49:30.448Z,80.70
2018-11-03T15:52:02.063Z,80.60
2018-11-03T15:54:33.974Z,80.70
2018-11-03T15:57:06.167Z,80.70
2018-11-03T15:59:38.046Z,80.70
2018-11-03T16:02:09.952Z,80.70
2018-11-03T16:04:41.596Z,80.70
2018-11-03T16:07:13.373Z,80.70
2018-11-03T16:09:45.112Z,80.80
2018-11-03T16:12:16.992Z,80.70
2018-11-03T16:14:48.826Z,80.60
2018-11-03T16:17:20.426Z,80.50
2018-11-03T16:19:52.382Z,80.60
2018-11-03T16:22:24.358Z,80.80
2018-11-03T16:24:56.398Z,80.50
2018-11-03T16:27:29.052Z,80.50
2018-11-03T16:30:01.433Z,80.30
2018-11-03T16:32:34.260Z,80.20
2018-11-03T16:35:07.146Z,80.20
2018-11-03T16:37:40.920Z,80.20
2018-11-03T16:40:15.733Z,79.60
2018-11-03T16:42:48.778Z,80.10
2018-11-03T16:45:22.147Z,80.10
2018-11-03T16:47:54.944Z,79.80
2018-11-03T16:50:28.199Z,79.70
2018-11-03T16:53:00.489Z,79.60
2018-11-03T16:55:32.960Z,79.60
2018-11-03T16:58:06.788Z,79.60
2018-11-03T17:00:40.070Z,79.50
2018-11-03T17:03:14.212Z,79.30
2018-11-03T17:05:46.768Z,79.40
2018-11-03T17:08:19.379Z,79.40
2018-11-03T17:10:51.323Z,79.00
2018-11-03T17:13:23.894Z,78.90
2018-11-03T17:15:56.394Z,79.20
2018-11-03T17:18:28.733Z,79.00
2018-11-03T17:21:01.497Z,78.90
2018-11-03T17:23:34.191Z,78.70
2018-11-03T17:26:06.929Z,78.70
2018-11-03T17:28:39.118Z,78.80
2018-11-03T17:31:11.567Z,78.50
2018-11-03T17:33:44.507Z,78.50
2018-11-03T17:36:17.684Z,78.50
2018-11-03T17:38:51.010Z,78.40
2018-11-03T17:41:23.410Z,78.40
2018-11-03T17:43:58.307Z,78.20
2018-11-03T17:46:31.694Z,78.30
2018-11-03T17:49:04.204Z,78.10
2018-11-03T17:51:36.322Z,78.30
2018-11-03T17:54:08.711Z,78.10
2018-11-03T17:56:41.636Z,78.20
2018-11-03T17:59:14.132Z,78.00
2018-11-03T18:01:47.031Z,77.90
2018-11-03T18:04:19.744Z,77.80
2018-11-03T18:06:53.172Z,77.70
2018-11-03T18:09:25.767Z,77.70
2018-11-03T18:11:58.385Z,77.80
2018-11-03T18:14:30.834Z,77.50
2018-11-03T18:17:04.213Z,77.80
2018-11-03T18:19:36.725Z,77.70
2018-11-03T18:22:09.328Z,77.20
2018-11-03T18:24:41.762Z,77.70
2018-11-03T18:27:13.571Z,77.30
2018-11-03T18:29:45.477Z,77.70
2018-11-03T18:32:18.284Z,77.60
2018-11-03T18:34:50.715Z,77.50
2018-11-03T18:37:22.540Z,77.40
2018-11-03T18:39:54.293Z,77.20
2018-11-03T18:42:26.104Z,77.40
2018-11-03T18:44:58.359Z,77.30
2018-11-03T18:47:30.192Z,77.20
2018-11-03T18:50:02.033Z,76.40
2018-11-03T18:52:33.894Z,77.40
2018-11-03T18:55:05.967Z,77.30
2018-11-03T18:57:38.268Z,77.40
2018-11-03T19:00:11.156Z,77.10
2018-11-03T19:02:43.187Z,77.10
2018-11-03T19:05:15.239Z,77.00
2018-11-03T19:07:47.279Z,77.00
2018-11-03T19:10:19.289Z,76.90
2018-11-03T19:12:51.255Z,76.80
2018-11-03T19:15:24.298Z,77.00
2018-11-03T19:17:56.705Z,76.60
2018-11-03T19:20:28.756Z,76.90
2018-11-03T19:23:00.511Z,77.00
2018-11-03T19:25:32.998Z,76.80
2018-11-03T19:28:04.779Z,76.60
2018-11-03T19:30:36.809Z,77.00
2018-11-03T19:33:08.700Z,76.70
2018-11-03T19:35:40.657Z,76.70
2018-11-03T19:38:12.338Z,76.70
2018-11-03T19:40:44.966Z,76.60
2018-11-03T19:43:16.837Z,76.50
2018-11-03T19:45:48.633Z,76.40
2018-11-03T19:48:20.726Z,76.70
2018-11-03T19:50:52.820Z,76.80
2018-11-03T19:53:25.755Z,76.90
2018-11-03T19:55:58.023Z,76.80
2018-11-03T19:58:29.354Z,76.50
2018-11-03T20:01:02.249Z,76.60
2018-11-03T20:03:35.824Z,77.40
2018-11-03T20:06:09.080Z,76.90
2018-11-03T20:08:40.948Z,76.70
2018-11-03T20:11:12.939Z,76.70
2018-11-03T20:13:44.918Z,76.80
2018-11-03T20:16:16.940Z,76.60
2018-11-03T20:18:48.934Z,76.60
2018-11-03T20:21:20.697Z,76.50
2018-11-03T20:23:54.794Z,76.40
2018-11-03T20:26:27.601Z,76.70
2018-11-03T20:28:59.412Z,76.60
2018-11-03T20:31:31.370Z,76.60
2018-11-03T20:34:03.996Z,76.40
2018-11-03T20:36:35.855Z,76.30
2018-11-03T20:39:10.456Z,76.30
2018-11-03T20:41:42.419Z,76.40
2018-11-03T20:44:14.177Z,76.10
2018-11-03T20:46:47.050Z,76.40
2018-11-03T20:49:18.990Z,76.30
2018-11-03T20:51:51.244Z,76.10
2018-11-03T20:54:23.236Z,76.00
2018-11-03T20:56:55.325Z,76.40
2018-11-03T20:59:26.971Z,76.30
2018-11-03T21:01:58.838Z,76.10
2018-11-03T21:04:31.669Z,76.20
2018-11-03T21:07:03.474Z,76.20
2018-11-03T21:09:35.448Z,76.00
2018-11-03T21:12:07.492Z,75.80
2018-11-03T21:14:39.600Z,75.90
2018-11-03T21:17:12.514Z,75.90
2018-11-03T21:19:44.611Z,76.10
2018-11-03T21:22:16.983Z,76.00
2018-11-03T21:24:48.759Z,75.90
2018-11-03T21:27:20.573Z,76.00
2018-11-03T21:29:52.274Z,75.70
2018-11-03T21:32:24.466Z,75.90
2018-11-03T21:34:56.126Z,76.00
2018-11-03T21:37:28.243Z,75.90
2018-11-03T21:40:01.127Z,75.80
2018-11-03T21:42:32.779Z,75.90
2018-11-03T21:45:04.727Z,75.80
2018-11-03T21:47:37.728Z,75.80
2018-11-03T21:50:10.032Z,75.80
2018-11-03T21:52:41.572Z,76.00
2018-11-03T21:55:13.382Z,75.50
2018-11-03T21:57:44.855Z,75.50
2018-11-03T22:00:16.496Z,75.60
2018-11-03T22:02:48.418Z,75.50
2018-11-03T22:05:20.748Z,75.70
2018-11-03T22:07:52.430Z,75.90
2018-11-03T22:10:24.227Z,76.00
2018-11-03T22:12:56.120Z,76.10
2018-11-03T22:15:27.688Z,76.20
2018-11-03T22:17:59.529Z,76.20
2018-11-03T22:20:32.520Z,76.40
2018-11-03T22:23:04.384Z,76.30
2018-11-03T22:25:35.963Z,76.40
2018-11-03T22:28:07.801Z,76.40
2018-11-03T22:30:39.201Z,76.40
2018-11-03T22:33:11.129Z,76.40
2018-11-03T22:35:43.625Z,77.10
2018-11-03T22:38:15.186Z,76.50
2018-11-03T22:40:47.000Z,76.40
2018-11-03T22:43:18.666Z,76.40
2018-11-03T22:45:50.355Z,76.40
2018-11-03T22:48:22.755Z,76.40
2018-11-03T22:50:54.590Z,76.40
2018-11-03T22:53:26.542Z,76.40
2018-11-03T22:55:58.271Z,76.50
2018-11-03T22:58:29.967Z,76.30
2018-11-03T23:01:01.867Z,76.40
2018-11-03T23:03:34.545Z,76.50
2018-11-03T23:06:06.191Z,76.60
2018-11-03T23:08:38.051Z,76.40
2018-11-03T23:11:10.450Z,76.50
2018-11-03T23:13:42.066Z,76.50
2018-11-03T23:16:13.713Z,76.50
2018-11-03T23:18:45.309Z,76.50
2018-11-03T23:21:17.211Z,76.50
2018-11-03T23:23:48.822Z,76.40
2018-11-03T23:26:21.635Z,76.40
2018-11-03T23:28:53.619Z,76.30
2018-11-03T23:31:25.411Z,76.40
2018-11-03T23:33:57.098Z,76.40
2018-11-03T23:36:28.909Z,76.40
2018-11-03T23:39:01.475Z,76.30
2018-11-03T23:41:33.437Z,76.90
2018-11-03T23:44:05.027Z,76.40
2018-11-03T23:46:36.989Z,76.30
2018-11-03T23:49:08.912Z,76.20
2018-11-03T23:51:41.241Z,76.10
2018-11-03T23:54:13.132Z,76.20
2018-11-03T23:56:44.746Z,76.10
2018-11-03T23:59:16.266Z,76.20
